sensor_id;sensor_type;location;lat;lon;timestamp;P1;durP1;ratioP1;P2;durP2;ratioP2
40044;SDS011;25735;48.122;11.422;2023-02-28T00:01:35;7.57;;;3.63;;
40044;SDS011;25735;48.122;11.422;2023-02-28T00:04:00;5.93;;;3.65;;
40044;SDS011;25735;48.122;11.422;2023-02-28T00:06:26;5.60;;;4.32;;
40044;SDS011;25735;48.122;11.422;2023-02-28T00:08:51;3.95;;;3.30;;
40044;SDS011;25735;48.122;11.422;2023-02-28T00:11:19;5.35;;;3.25;;
40044;SDS011;25735;48.122;11.422;2023-02-28T00:13:45;6.40;;;3.90;;
40044;SDS011;25735;48.122;11.422;2023-02-28T00:16:18;6.55;;;3.90;;
40044;SDS011;25735;48.122;11.422;2023-02-28T00:18:43;5.78;;;4.10;;
40044;SDS011;25735;48.122;11.422;2023-02-28T00:21:08;5.85;;;3.55;;
40044;SDS011;25735;48.122;11.422;2023-02-28T00:23:34;6.18;;;3.53;;
40044;SDS011;25735;48.122;11.422;2023-02-28T00:25:59;9.82;;;3.80;;
40044;SDS011;25735;48.122;11.422;2023-02-28T00:28:24;5.63;;;3.72;;
40044;SDS011;25735;48.122;11.422;2023-02-28T00:30:49;5.65;;;3.78;;
40044;SDS011;25735;48.122;11.422;2023-02-28T00:33:15;6.07;;;3.33;;
40044;SDS011;25735;48.122;11.422;2023-02-28T00:35:40;5.60;;;3.80;;
40044;SDS011;25735;48.122;11.422;2023-02-28T00:38:05;7.20;;;3.88;;
40044;SDS011;25735;48.122;11.422;2023-02-28T00:40:30;5.47;;;3.60;;
40044;SDS011;25735;48.122;11.422;2023-02-28T00:42:55;6.53;;;4.25;;
40044;SDS011;25735;48.122;11.422;2023-02-28T00:45:21;4.78;;;3.55;;
40044;SDS011;25735;48.122;11.422;2023-02-28T00:47:46;5.13;;;3.90;;
40044;SDS011;25735;48.122;11.422;2023-02-28T00:50:14;7.35;;;4.05;;
40044;SDS011;25735;48.122;11.422;2023-02-28T00:52:39;6.65;;;3.85;;
40044;SDS011;25735;48.122;11.422;2023-02-28T00:55:04;5.22;;;4.00;;
40044;SDS011;25735;48.122;11.422;2023-02-28T00:57:30;5.40;;;3.55;;
40044;SDS011;25735;48.122;11.422;2023-02-28T00:59:55;6.55;;;4.07;;
40044;SDS011;25735;48.122;11.422;2023-02-28T01:02:21;5.20;;;3.97;;
40044;SDS011;25735;48.122;11.422;2023-02-28T01:04:46;6.85;;;4.13;;
40044;SDS011;25735;48.122;11.422;2023-02-28T01:07:11;7.93;;;4.85;;
40044;SDS011;25735;48.122;11.422;2023-02-28T01:09:36;7.10;;;3.97;;
40044;SDS011;25735;48.122;11.422;2023-02-28T01:12:02;5.27;;;3.77;;
40044;SDS011;25735;48.122;11.422;2023-02-28T01:14:27;4.93;;;3.72;;
40044;SDS011;25735;48.122;11.422;2023-02-28T01:16:52;5.30;;;4.00;;
40044;SDS011;25735;48.122;11.422;2023-02-28T01:19:17;6.83;;;4.50;;
40044;SDS011;25735;48.122;11.422;2023-02-28T01:21:42;5.37;;;3.93;;
40044;SDS011;25735;48.122;11.422;2023-02-28T01:24:08;5.40;;;3.80;;
40044;SDS011;25735;48.122;11.422;2023-02-28T01:26:33;5.65;;;4.40;;
40044;SDS011;25735;48.122;11.422;2023-02-28T01:28:58;5.88;;;4.13;;
40044;SDS011;25735;48.122;11.422;2023-02-28T01:31:24;6.85;;;4.40;;
40044;SDS011;25735;48.122;11.422;2023-02-28T01:33:49;5.07;;;4.05;;
40044;SDS011;25735;48.122;11.422;2023-02-28T01:36:16;5.60;;;3.83;;
40044;SDS011;25735;48.122;11.422;2023-02-28T01:38:43;6.75;;;4.20;;
40044;SDS011;25735;48.122;11.422;2023-02-28T01:41:09;6.97;;;5.15;;
40044;SDS011;25735;48.122;11.422;2023-02-28T01:46:09;7.07;;;4.05;;
40044;SDS011;25735;48.122;11.422;2023-02-28T01:48:35;5.57;;;3.78;;
40044;SDS011;25735;48.122;11.422;2023-02-28T01:51:03;6.50;;;4.63;;
40044;SDS011;25735;48.122;11.422;2023-02-28T01:53:31;6.93;;;4.78;;
40044;SDS011;25735;48.122;11.422;2023-02-28T01:55:57;5.65;;;3.83;;
40044;SDS011;25735;48.122;11.422;2023-02-28T01:58:23;6.03;;;4.32;;
40044;SDS011;25735;48.122;11.422;2023-02-28T02:00:48;6.75;;;4.45;;
40044;SDS011;25735;48.122;11.422;2023-02-28T02:03:14;7.40;;;4.68;;
40044;SDS011;25735;48.122;11.422;2023-02-28T02:05:43;6.85;;;4.28;;
40044;SDS011;25735;48.122;11.422;2023-02-28T02:08:13;6.53;;;4.25;;
40044;SDS011;25735;48.122;11.422;2023-02-28T02:10:47;6.15;;;4.20;;
40044;SDS011;25735;48.122;11.422;2023-02-28T02:15:44;9.27;;;4.68;;
40044;SDS011;25735;48.122;11.422;2023-02-28T02:21:16;7.75;;;4.95;;
40044;SDS011;25735;48.122;11.422;2023-02-28T02:29:02;8.10;;;4.93;;
40044;SDS011;25735;48.122;11.422;2023-02-28T02:31:50;8.55;;;4.93;;
40044;SDS011;25735;48.122;11.422;2023-02-28T02:34:29;6.15;;;4.28;;
40044;SDS011;25735;48.122;11.422;2023-02-28T02:37:02;6.78;;;4.47;;
40044;SDS011;25735;48.122;11.422;2023-02-28T02:39:35;6.80;;;4.45;;
40044;SDS011;25735;48.122;11.422;2023-02-28T02:42:03;6.53;;;4.45;;
40044;SDS011;25735;48.122;11.422;2023-02-28T02:44:31;7.03;;;4.90;;
40044;SDS011;25735;48.122;11.422;2023-02-28T02:47:09;10.82;;;5.07;;
40044;SDS011;25735;48.122;11.422;2023-02-28T02:49:36;6.43;;;4.30;;
40044;SDS011;25735;48.122;11.422;2023-02-28T02:52:03;7.57;;;4.95;;
40044;SDS011;25735;48.122;11.422;2023-02-28T02:54:30;7.03;;;4.30;;
40044;SDS011;25735;48.122;11.422;2023-02-28T02:56:58;10.25;;;4.88;;
40044;SDS011;25735;48.122;11.422;2023-02-28T02:59:24;8.45;;;4.80;;
40044;SDS011;25735;48.122;11.422;2023-02-28T03:01:50;7.78;;;4.88;;
40044;SDS011;25735;48.122;11.422;2023-02-28T03:04:17;7.25;;;4.90;;
40044;SDS011;25735;48.122;11.422;2023-02-28T03:06:43;7.82;;;5.07;;
40044;SDS011;25735;48.122;11.422;2023-02-28T03:09:08;7.43;;;4.85;;
40044;SDS011;25735;48.122;11.422;2023-02-28T03:11:34;11.83;;;5.43;;
40044;SDS011;25735;48.122;11.422;2023-02-28T03:26:39;7.93;;;5.70;;
40044;SDS011;25735;48.122;11.422;2023-02-28T03:29:15;9.07;;;5.35;;
40044;SDS011;25735;48.122;11.422;2023-02-28T03:31:47;8.85;;;5.18;;
40044;SDS011;25735;48.122;11.422;2023-02-28T03:34:17;8.95;;;5.30;;
40044;SDS011;25735;48.122;11.422;2023-02-28T03:36:45;6.90;;;4.78;;
40044;SDS011;25735;48.122;11.422;2023-02-28T03:39:34;8.93;;;5.50;;
40044;SDS011;25735;48.122;11.422;2023-02-28T03:42:01;10.10;;;5.60;;
40044;SDS011;25735;48.122;11.422;2023-02-28T03:44:35;8.68;;;5.60;;
40044;SDS011;25735;48.122;11.422;2023-02-28T03:47:12;10.40;;;6.47;;
40044;SDS011;25735;48.122;11.422;2023-02-28T03:49:40;10.90;;;5.65;;
40044;SDS011;25735;48.122;11.422;2023-02-28T03:52:08;8.07;;;5.65;;
40044;SDS011;25735;48.122;11.422;2023-02-28T03:54:36;9.38;;;6.57;;
40044;SDS011;25735;48.122;11.422;2023-02-28T03:57:04;12.13;;;6.13;;
40044;SDS011;25735;48.122;11.422;2023-02-28T03:59:36;7.90;;;5.38;;
40044;SDS011;25735;48.122;11.422;2023-02-28T04:02:02;9.88;;;6.20;;
40044;SDS011;25735;48.122;11.422;2023-02-28T04:04:28;9.27;;;6.03;;
40044;SDS011;25735;48.122;11.422;2023-02-28T04:06:53;9.40;;;6.13;;
40044;SDS011;25735;48.122;11.422;2023-02-28T04:09:25;11.27;;;6.47;;
40044;SDS011;25735;48.122;11.422;2023-02-28T04:11:51;9.07;;;6.17;;
40044;SDS011;25735;48.122;11.422;2023-02-28T04:14:17;11.65;;;7.05;;
40044;SDS011;25735;48.122;11.422;2023-02-28T04:16:42;8.88;;;5.70;;
40044;SDS011;25735;48.122;11.422;2023-02-28T04:19:08;8.95;;;6.10;;
40044;SDS011;25735;48.122;11.422;2023-02-28T04:21:43;8.38;;;6.03;;
40044;SDS011;25735;48.122;11.422;2023-02-28T04:24:10;10.75;;;6.75;;
40044;SDS011;25735;48.122;11.422;2023-02-28T04:26:39;8.82;;;6.43;;
40044;SDS011;25735;48.122;11.422;2023-02-28T04:29:04;14.38;;;7.32;;
40044;SDS011;25735;48.122;11.422;2023-02-28T04:31:30;10.48;;;7.28;;
40044;SDS011;25735;48.122;11.422;2023-02-28T04:33:55;10.82;;;6.72;;
40044;SDS011;25735;48.122;11.422;2023-02-28T04:36:20;10.18;;;6.35;;
40044;SDS011;25735;48.122;11.422;2023-02-28T04:38:47;10.00;;;6.50;;
40044;SDS011;25735;48.122;11.422;2023-02-28T04:41:13;9.57;;;6.20;;
40044;SDS011;25735;48.122;11.422;2023-02-28T04:43:38;10.97;;;6.93;;
40044;SDS011;25735;48.122;11.422;2023-02-28T04:46:03;10.55;;;6.65;;
40044;SDS011;25735;48.122;11.422;2023-02-28T04:48:30;9.50;;;7.18;;
40044;SDS011;25735;48.122;11.422;2023-02-28T04:50:59;10.43;;;7.18;;
40044;SDS011;25735;48.122;11.422;2023-02-28T04:53:24;16.85;;;8.27;;
40044;SDS011;25735;48.122;11.422;2023-02-28T04:55:50;11.18;;;6.28;;
40044;SDS011;25735;48.122;11.422;2023-02-28T04:58:15;13.25;;;8.00;;
40044;SDS011;25735;48.122;11.422;2023-02-28T05:00:41;8.93;;;6.50;;
40044;SDS011;25735;48.122;11.422;2023-02-28T05:03:06;9.00;;;6.33;;
40044;SDS011;25735;48.122;11.422;2023-02-28T05:05:31;11.60;;;7.97;;
40044;SDS011;25735;48.122;11.422;2023-02-28T05:07:56;12.03;;;7.77;;
40044;SDS011;25735;48.122;11.422;2023-02-28T05:10:22;11.35;;;7.53;;
40044;SDS011;25735;48.122;11.422;2023-02-28T05:12:47;11.55;;;7.13;;
40044;SDS011;25735;48.122;11.422;2023-02-28T05:15:13;13.77;;;7.22;;
40044;SDS011;25735;48.122;11.422;2023-02-28T05:17:39;14.15;;;8.32;;
40044;SDS011;25735;48.122;11.422;2023-02-28T05:20:04;12.20;;;7.20;;
40044;SDS011;25735;48.122;11.422;2023-02-28T05:22:29;14.38;;;7.10;;
40044;SDS011;25735;48.122;11.422;2023-02-28T05:24:55;11.77;;;7.95;;
40044;SDS011;25735;48.122;11.422;2023-02-28T05:27:20;11.02;;;7.95;;
40044;SDS011;25735;48.122;11.422;2023-02-28T05:29:45;14.32;;;8.40;;
40044;SDS011;25735;48.122;11.422;2023-02-28T05:32:11;14.23;;;8.73;;
40044;SDS011;25735;48.122;11.422;2023-02-28T05:34:37;13.73;;;8.75;;
40044;SDS011;25735;48.122;11.422;2023-02-28T05:37:02;12.55;;;9.13;;
40044;SDS011;25735;48.122;11.422;2023-02-28T05:39:27;14.60;;;9.18;;
40044;SDS011;25735;48.122;11.422;2023-02-28T05:41:52;17.10;;;9.40;;
40044;SDS011;25735;48.122;11.422;2023-02-28T05:44:17;13.67;;;9.73;;
40044;SDS011;25735;48.122;11.422;2023-02-28T05:46:42;14.80;;;8.87;;
40044;SDS011;25735;48.122;11.422;2023-02-28T05:49:08;13.33;;;8.87;;
40044;SDS011;25735;48.122;11.422;2023-02-28T05:51:33;16.15;;;10.45;;
40044;SDS011;25735;48.122;11.422;2023-02-28T05:54:01;15.13;;;10.27;;
40044;SDS011;25735;48.122;11.422;2023-02-28T05:56:26;15.05;;;8.68;;
40044;SDS011;25735;48.122;11.422;2023-02-28T05:58:52;16.77;;;10.15;;
40044;SDS011;25735;48.122;11.422;2023-02-28T06:01:31;17.10;;;11.00;;
40044;SDS011;25735;48.122;11.422;2023-02-28T06:03:57;15.85;;;10.90;;
40044;SDS011;25735;48.122;11.422;2023-02-28T06:06:22;17.67;;;10.65;;
40044;SDS011;25735;48.122;11.422;2023-02-28T06:08:48;16.47;;;10.93;;
40044;SDS011;25735;48.122;11.422;2023-02-28T06:11:13;17.20;;;11.32;;
40044;SDS011;25735;48.122;11.422;2023-02-28T06:13:38;14.35;;;9.88;;
40044;SDS011;25735;48.122;11.422;2023-02-28T06:16:04;18.83;;;10.80;;
40044;SDS011;25735;48.122;11.422;2023-02-28T06:18:29;17.65;;;11.27;;
40044;SDS011;25735;48.122;11.422;2023-02-28T06:20:54;14.87;;;10.13;;
40044;SDS011;25735;48.122;11.422;2023-02-28T06:23:20;17.77;;;11.98;;
40044;SDS011;25735;48.122;11.422;2023-02-28T06:25:45;15.73;;;10.35;;
40044;SDS011;25735;48.122;11.422;2023-02-28T06:28:10;18.60;;;11.55;;
40044;SDS011;25735;48.122;11.422;2023-02-28T06:30:36;15.68;;;10.70;;
40044;SDS011;25735;48.122;11.422;2023-02-28T06:33:02;17.02;;;10.95;;
40044;SDS011;25735;48.122;11.422;2023-02-28T06:35:27;16.10;;;10.70;;
40044;SDS011;25735;48.122;11.422;2023-02-28T06:37:52;15.63;;;10.85;;
40044;SDS011;25735;48.122;11.422;2023-02-28T06:40:17;19.90;;;13.37;;
40044;SDS011;25735;48.122;11.422;2023-02-28T06:42:42;18.77;;;10.53;;
40044;SDS011;25735;48.122;11.422;2023-02-28T06:45:08;16.92;;;11.88;;
40044;SDS011;25735;48.122;11.422;2023-02-28T06:47:34;19.50;;;11.60;;
40044;SDS011;25735;48.122;11.422;2023-02-28T06:49:59;16.20;;;10.63;;
40044;SDS011;25735;48.122;11.422;2023-02-28T06:52:26;15.93;;;10.35;;
40044;SDS011;25735;48.122;11.422;2023-02-28T06:54:51;17.38;;;11.40;;
40044;SDS011;25735;48.122;11.422;2023-02-28T06:57:24;43.58;;;12.55;;
40044;SDS011;25735;48.122;11.422;2023-02-28T06:59:50;18.13;;;11.55;;
40044;SDS011;25735;48.122;11.422;2023-02-28T07:02:15;19.40;;;11.93;;
40044;SDS011;25735;48.122;11.422;2023-02-28T07:04:40;17.15;;;11.07;;
40044;SDS011;25735;48.122;11.422;2023-02-28T07:07:08;17.20;;;12.50;;
40044;SDS011;25735;48.122;11.422;2023-02-28T07:09:33;20.40;;;12.13;;
40044;SDS011;25735;48.122;11.422;2023-02-28T07:11:59;17.05;;;11.45;;
40044;SDS011;25735;48.122;11.422;2023-02-28T07:14:25;15.15;;;9.57;;
40044;SDS011;25735;48.122;11.422;2023-02-28T07:16:51;17.02;;;11.18;;
40044;SDS011;25735;48.122;11.422;2023-02-28T07:19:16;17.08;;;10.93;;
40044;SDS011;25735;48.122;11.422;2023-02-28T07:21:41;14.67;;;11.00;;
40044;SDS011;25735;48.122;11.422;2023-02-28T07:24:06;15.37;;;10.30;;
40044;SDS011;25735;48.122;11.422;2023-02-28T07:26:31;15.20;;;10.02;;
40044;SDS011;25735;48.122;11.422;2023-02-28T07:28:58;16.33;;;11.38;;
40044;SDS011;25735;48.122;11.422;2023-02-28T07:31:24;16.58;;;10.30;;
40044;SDS011;25735;48.122;11.422;2023-02-28T07:33:49;19.05;;;12.27;;
40044;SDS011;25735;48.122;11.422;2023-02-28T07:36:15;18.88;;;12.38;;
40044;SDS011;25735;48.122;11.422;2023-02-28T07:38:43;18.17;;;11.32;;
40044;SDS011;25735;48.122;11.422;2023-02-28T07:41:08;16.83;;;11.43;;
40044;SDS011;25735;48.122;11.422;2023-02-28T07:43:34;21.52;;;11.50;;
40044;SDS011;25735;48.122;11.422;2023-02-28T07:46:04;17.48;;;10.85;;
40044;SDS011;25735;48.122;11.422;2023-02-28T07:48:29;15.52;;;11.05;;
40044;SDS011;25735;48.122;11.422;2023-02-28T07:50:55;15.45;;;11.63;;
40044;SDS011;25735;48.122;11.422;2023-02-28T07:53:20;15.52;;;11.23;;
40044;SDS011;25735;48.122;11.422;2023-02-28T07:55:45;19.00;;;12.20;;
40044;SDS011;25735;48.122;11.422;2023-02-28T07:58:10;18.88;;;11.57;;
40044;SDS011;25735;48.122;11.422;2023-02-28T08:00:36;18.05;;;12.73;;
40044;SDS011;25735;48.122;11.422;2023-02-28T08:03:01;16.10;;;10.98;;
40044;SDS011;25735;48.122;11.422;2023-02-28T08:05:26;15.93;;;11.05;;
40044;SDS011;25735;48.122;11.422;2023-02-28T08:07:51;16.00;;;11.32;;
40044;SDS011;25735;48.122;11.422;2023-02-28T08:10:16;18.60;;;11.93;;
40044;SDS011;25735;48.122;11.422;2023-02-28T08:12:41;21.77;;;14.23;;
40044;SDS011;25735;48.122;11.422;2023-02-28T08:15:07;15.47;;;10.63;;
40044;SDS011;25735;48.122;11.422;2023-02-28T08:17:32;18.55;;;11.90;;
40044;SDS011;25735;48.122;11.422;2023-02-28T08:19:57;16.85;;;11.40;;
40044;SDS011;25735;48.122;11.422;2023-02-28T08:22:22;15.63;;;10.77;;
40044;SDS011;25735;48.122;11.422;2023-02-28T08:24:47;18.90;;;12.70;;
40044;SDS011;25735;48.122;11.422;2023-02-28T08:27:14;17.85;;;11.95;;
40044;SDS011;25735;48.122;11.422;2023-02-28T08:29:39;15.88;;;11.52;;
40044;SDS011;25735;48.122;11.422;2023-02-28T08:32:05;14.55;;;10.30;;
40044;SDS011;25735;48.122;11.422;2023-02-28T08:34:30;17.00;;;11.85;;
40044;SDS011;25735;48.122;11.422;2023-02-28T08:36:55;16.90;;;11.80;;
40044;SDS011;25735;48.122;11.422;2023-02-28T08:39:20;17.63;;;11.68;;
40044;SDS011;25735;48.122;11.422;2023-02-28T08:41:46;21.65;;;12.35;;
40044;SDS011;25735;48.122;11.422;2023-02-28T08:44:11;19.02;;;12.93;;
40044;SDS011;25735;48.122;11.422;2023-02-28T08:46:36;16.87;;;11.00;;
40044;SDS011;25735;48.122;11.422;2023-02-28T08:49:01;13.43;;;10.38;;
40044;SDS011;25735;48.122;11.422;2023-02-28T08:51:27;17.40;;;12.50;;
40044;SDS011;25735;48.122;11.422;2023-02-28T08:53:57;17.27;;;11.93;;
40044;SDS011;25735;48.122;11.422;2023-02-28T08:56:23;18.10;;;13.03;;
40044;SDS011;25735;48.122;11.422;2023-02-28T08:58:49;18.93;;;12.93;;
40044;SDS011;25735;48.122;11.422;2023-02-28T09:01:18;16.88;;;11.60;;
40044;SDS011;25735;48.122;11.422;2023-02-28T09:03:44;22.98;;;12.55;;
40044;SDS011;25735;48.122;11.422;2023-02-28T09:06:11;22.40;;;13.40;;
40044;SDS011;25735;48.122;11.422;2023-02-28T09:08:36;17.83;;;12.43;;
40044;SDS011;25735;48.122;11.422;2023-02-28T09:11:01;17.15;;;11.80;;
40044;SDS011;25735;48.122;11.422;2023-02-28T09:13:28;18.02;;;11.55;;
40044;SDS011;25735;48.122;11.422;2023-02-28T09:15:53;16.58;;;11.98;;
40044;SDS011;25735;48.122;11.422;2023-02-28T09:18:19;17.88;;;12.32;;
40044;SDS011;25735;48.122;11.422;2023-02-28T09:20:44;15.70;;;12.05;;
40044;SDS011;25735;48.122;11.422;2023-02-28T09:23:10;18.50;;;12.30;;
40044;SDS011;25735;48.122;11.422;2023-02-28T09:25:36;17.75;;;12.68;;
40044;SDS011;25735;48.122;11.422;2023-02-28T09:28:01;18.90;;;11.82;;
40044;SDS011;25735;48.122;11.422;2023-02-28T09:30:27;17.05;;;11.52;;
40044;SDS011;25735;48.122;11.422;2023-02-28T09:32:52;16.23;;;11.10;;
40044;SDS011;25735;48.122;11.422;2023-02-28T09:35:18;19.60;;;13.07;;
40044;SDS011;25735;48.122;11.422;2023-02-28T09:37:44;17.67;;;12.43;;
40044;SDS011;25735;48.122;11.422;2023-02-28T09:40:11;16.50;;;11.25;;
40044;SDS011;25735;48.122;11.422;2023-02-28T09:42:37;18.05;;;11.48;;
40044;SDS011;25735;48.122;11.422;2023-02-28T09:45:05;21.42;;;13.35;;
40044;SDS011;25735;48.122;11.422;2023-02-28T09:47:36;17.23;;;11.73;;
40044;SDS011;25735;48.122;11.422;2023-02-28T09:50:06;14.27;;;11.55;;
40044;SDS011;25735;48.122;11.422;2023-02-28T09:52:33;18.07;;;12.43;;
40044;SDS011;25735;48.122;11.422;2023-02-28T09:57:57;15.93;;;10.60;;
40044;SDS011;25735;48.122;11.422;2023-02-28T10:00:28;17.10;;;11.13;;
40044;SDS011;25735;48.122;11.422;2023-02-28T10:02:59;18.02;;;12.25;;
40044;SDS011;25735;48.122;11.422;2023-02-28T10:08:30;15.18;;;8.75;;
40044;SDS011;25735;48.122;11.422;2023-02-28T10:10:57;14.45;;;10.50;;
40044;SDS011;25735;48.122;11.422;2023-02-28T10:13:35;16.63;;;11.93;;
40044;SDS011;25735;48.122;11.422;2023-02-28T10:16:02;17.50;;;11.43;;
40044;SDS011;25735;48.122;11.422;2023-02-28T10:18:30;16.27;;;11.15;;
40044;SDS011;25735;48.122;11.422;2023-02-28T10:20:58;18.58;;;11.18;;
40044;SDS011;25735;48.122;11.422;2023-02-28T10:23:28;16.00;;;10.95;;
40044;SDS011;25735;48.122;11.422;2023-02-28T10:25:55;18.25;;;12.38;;
40044;SDS011;25735;48.122;11.422;2023-02-28T10:28:22;17.50;;;12.27;;
40044;SDS011;25735;48.122;11.422;2023-02-28T10:30:50;17.55;;;12.18;;
40044;SDS011;25735;48.122;11.422;2023-02-28T10:35:51;19.58;;;11.30;;
40044;SDS011;25735;48.122;11.422;2023-02-28T10:38:23;15.38;;;11.88;;
40044;SDS011;25735;48.122;11.422;2023-02-28T10:40:49;16.13;;;11.52;;
40044;SDS011;25735;48.122;11.422;2023-02-28T10:46:26;14.70;;;11.45;;
40044;SDS011;25735;48.122;11.422;2023-02-28T10:48:33;17.15;;;11.25;;
40044;SDS011;25735;48.122;11.422;2023-02-28T10:50:59;17.77;;;12.13;;
40044;SDS011;25735;48.122;11.422;2023-02-28T10:56:12;17.37;;;12.77;;
40044;SDS011;25735;48.122;11.422;2023-02-28T10:58:50;20.42;;;12.27;;
40044;SDS011;25735;48.122;11.422;2023-02-28T11:01:17;14.90;;;11.48;;
40044;SDS011;25735;48.122;11.422;2023-02-28T11:03:42;16.77;;;10.90;;
40044;SDS011;25735;48.122;11.422;2023-02-28T11:06:12;16.90;;;11.43;;
40044;SDS011;25735;48.122;11.422;2023-02-28T11:08:46;16.67;;;11.90;;
40044;SDS011;25735;48.122;11.422;2023-02-28T11:11:12;20.10;;;11.95;;
40044;SDS011;25735;48.122;11.422;2023-02-28T11:13:37;20.27;;;12.67;;
40044;SDS011;25735;48.122;11.422;2023-02-28T11:16:04;16.52;;;10.45;;
40044;SDS011;25735;48.122;11.422;2023-02-28T11:18:31;17.33;;;11.45;;
40044;SDS011;25735;48.122;11.422;2023-02-28T11:20:58;13.15;;;10.40;;
40044;SDS011;25735;48.122;11.422;2023-02-28T11:23:25;16.17;;;11.95;;
40044;SDS011;25735;48.122;11.422;2023-02-28T11:25:52;15.50;;;11.23;;
40044;SDS011;25735;48.122;11.422;2023-02-28T11:35:53;14.88;;;10.55;;
40044;SDS011;25735;48.122;11.422;2023-02-28T11:38:23;14.48;;;10.95;;
40044;SDS011;25735;48.122;11.422;2023-02-28T11:46:06;13.73;;;10.25;;
40044;SDS011;25735;48.122;11.422;2023-02-28T11:54:25;14.00;;;10.70;;
40044;SDS011;25735;48.122;11.422;2023-02-28T11:56:54;14.15;;;10.30;;
40044;SDS011;25735;48.122;11.422;2023-02-28T12:07:00;13.00;;;10.63;;
40044;SDS011;25735;48.122;11.422;2023-02-28T12:12:19;13.45;;;10.52;;
40044;SDS011;25735;48.122;11.422;2023-02-28T12:15:02;13.13;;;10.48;;
40044;SDS011;25735;48.122;11.422;2023-02-28T12:17:43;11.95;;;10.48;;
40044;SDS011;25735;48.122;11.422;2023-02-28T12:20:25;14.93;;;11.45;;
40044;SDS011;25735;48.122;11.422;2023-02-28T12:22:55;14.73;;;10.25;;
40044;SDS011;25735;48.122;11.422;2023-02-28T12:27:56;16.00;;;9.65;;
40044;SDS011;25735;48.122;11.422;2023-02-28T12:30:25;15.45;;;10.82;;
40044;SDS011;25735;48.122;11.422;2023-02-28T12:33:01;14.15;;;9.73;;
40044;SDS011;25735;48.122;11.422;2023-02-28T12:35:31;15.20;;;10.23;;
40044;SDS011;25735;48.122;11.422;2023-02-28T12:38:19;11.35;;;8.35;;
40044;SDS011;25735;48.122;11.422;2023-02-28T12:40:48;12.45;;;9.50;;
40044;SDS011;25735;48.122;11.422;2023-02-28T12:43:16;12.23;;;9.63;;
40044;SDS011;25735;48.122;11.422;2023-02-28T12:45:44;11.98;;;9.45;;
40044;SDS011;25735;48.122;11.422;2023-02-28T12:48:12;16.48;;;10.50;;
40044;SDS011;25735;48.122;11.422;2023-02-28T12:50:39;13.02;;;9.35;;
40044;SDS011;25735;48.122;11.422;2023-02-28T12:58:01;12.75;;;9.25;;
40044;SDS011;25735;48.122;11.422;2023-02-28T13:00:32;11.20;;;8.65;;
40044;SDS011;25735;48.122;11.422;2023-02-28T13:03:15;10.00;;;7.75;;
40044;SDS011;25735;48.122;11.422;2023-02-28T13:05:50;12.50;;;8.38;;
40044;SDS011;25735;48.122;11.422;2023-02-28T13:10:59;10.98;;;7.90;;
40044;SDS011;25735;48.122;11.422;2023-02-28T13:13:25;11.00;;;9.23;;
40044;SDS011;25735;48.122;11.422;2023-02-28T13:18:36;11.30;;;9.52;;
40044;SDS011;25735;48.122;11.422;2023-02-28T13:21:02;11.40;;;8.93;;
40044;SDS011;25735;48.122;11.422;2023-02-28T13:26:05;10.27;;;7.50;;
40044;SDS011;25735;48.122;11.422;2023-02-28T13:31:15;11.38;;;8.48;;
40044;SDS011;25735;48.122;11.422;2023-02-28T13:46:24;10.77;;;8.20;;
40044;SDS011;25735;48.122;11.422;2023-02-28T13:48:49;8.47;;;7.67;;
40044;SDS011;25735;48.122;11.422;2023-02-28T13:51:27;9.43;;;8.30;;
40044;SDS011;25735;48.122;11.422;2023-02-28T13:54:00;10.65;;;9.27;;
40044;SDS011;25735;48.122;11.422;2023-02-28T13:56:32;9.13;;;7.65;;
40044;SDS011;25735;48.122;11.422;2023-02-28T13:59:03;9.70;;;7.97;;
40044;SDS011;25735;48.122;11.422;2023-02-28T14:06:30;9.38;;;8.38;;
40044;SDS011;25735;48.122;11.422;2023-02-28T14:08:58;10.63;;;9.45;;
40044;SDS011;25735;48.122;11.422;2023-02-28T14:11:29;9.45;;;8.50;;
40044;SDS011;25735;48.122;11.422;2023-02-28T14:13:55;10.27;;;8.93;;
40044;SDS011;25735;48.122;11.422;2023-02-28T14:16:21;11.52;;;8.88;;
40044;SDS011;25735;48.122;11.422;2023-02-28T14:18:48;10.93;;;7.82;;
40044;SDS011;25735;48.122;11.422;2023-02-28T14:21:33;9.43;;;7.93;;
40044;SDS011;25735;48.122;11.422;2023-02-28T14:29:30;8.40;;;7.47;;
40044;SDS011;25735;48.122;11.422;2023-02-28T14:34:53;9.55;;;7.78;;
40044;SDS011;25735;48.122;11.422;2023-02-28T14:37:23;10.05;;;8.98;;
40044;SDS011;25735;48.122;11.422;2023-02-28T14:39:50;11.20;;;7.82;;
40044;SDS011;25735;48.122;11.422;2023-02-28T14:42:29;13.43;;;8.55;;
40044;SDS011;25735;48.122;11.422;2023-02-28T14:44:54;9.15;;;8.23;;
40044;SDS011;25735;48.122;11.422;2023-02-28T14:47:23;8.90;;;8.00;;
40044;SDS011;25735;48.122;11.422;2023-02-28T14:49:50;10.85;;;8.52;;
40044;SDS011;25735;48.122;11.422;2023-02-28T14:52:22;9.82;;;8.82;;
40044;SDS011;25735;48.122;11.422;2023-02-28T14:54:52;10.80;;;9.65;;
40044;SDS011;25735;48.122;11.422;2023-02-28T14:57:21;10.15;;;8.32;;
40044;SDS011;25735;48.122;11.422;2023-02-28T14:59:56;9.45;;;8.45;;
40044;SDS011;25735;48.122;11.422;2023-02-28T15:02:22;11.75;;;9.05;;
40044;SDS011;25735;48.122;11.422;2023-02-28T15:04:55;10.05;;;8.98;;
40044;SDS011;25735;48.122;11.422;2023-02-28T15:07:20;10.15;;;8.88;;
40044;SDS011;25735;48.122;11.422;2023-02-28T15:10:06;8.70;;;7.80;;
40044;SDS011;25735;48.122;11.422;2023-02-28T15:12:31;12.90;;;9.10;;
40044;SDS011;25735;48.122;11.422;2023-02-28T15:14:56;9.33;;;8.43;;
40044;SDS011;25735;48.122;11.422;2023-02-28T15:17:22;9.33;;;8.23;;
40044;SDS011;25735;48.122;11.422;2023-02-28T15:19:50;11.88;;;8.38;;
40044;SDS011;25735;48.122;11.422;2023-02-28T15:22:17;9.98;;;8.48;;
40044;SDS011;25735;48.122;11.422;2023-02-28T15:24:44;9.57;;;7.93;;
40044;SDS011;25735;48.122;11.422;2023-02-28T15:27:12;9.57;;;8.20;;
40044;SDS011;25735;48.122;11.422;2023-02-28T15:29:45;12.68;;;9.02;;
40044;SDS011;25735;48.122;11.422;2023-02-28T15:32:21;12.60;;;9.02;;
40044;SDS011;25735;48.122;11.422;2023-02-28T15:34:48;10.40;;;8.48;;
40044;SDS011;25735;48.122;11.422;2023-02-28T15:37:27;11.68;;;9.68;;
40044;SDS011;25735;48.122;11.422;2023-02-28T15:39:53;9.93;;;8.50;;
40044;SDS011;25735;48.122;11.422;2023-02-28T15:42:20;12.88;;;9.05;;
40044;SDS011;25735;48.122;11.422;2023-02-28T15:44:45;11.30;;;8.63;;
40044;SDS011;25735;48.122;11.422;2023-02-28T15:49:45;10.13;;;8.35;;
40044;SDS011;25735;48.122;11.422;2023-02-28T15:52:19;11.95;;;8.98;;
40044;SDS011;25735;48.122;11.422;2023-02-28T15:54:45;13.50;;;9.73;;
40044;SDS011;25735;48.122;11.422;2023-02-28T15:57:21;14.48;;;9.52;;
40044;SDS011;25735;48.122;11.422;2023-02-28T15:59:51;15.02;;;9.18;;
40044;SDS011;25735;48.122;11.422;2023-02-28T16:02:31;14.75;;;9.55;;
40044;SDS011;25735;48.122;11.422;2023-02-28T16:07:24;14.32;;;11.15;;
40044;SDS011;25735;48.122;11.422;2023-02-28T16:09:50;13.15;;;9.80;;
40044;SDS011;25735;48.122;11.422;2023-02-28T16:12:16;13.38;;;9.75;;
40044;SDS011;25735;48.122;11.422;2023-02-28T16:14:41;16.50;;;11.45;;
40044;SDS011;25735;48.122;11.422;2023-02-28T16:17:12;18.80;;;11.65;;
40044;SDS011;25735;48.122;11.422;2023-02-28T16:19:41;14.30;;;10.90;;
40044;SDS011;25735;48.122;11.422;2023-02-28T16:22:07;13.63;;;10.70;;